createdAt,value
2022-08-09T00:00:04.280Z,17.78
2022-08-09T00:02:49.104Z,17.77
2022-08-09T00:06:16.653Z,17.78
2022-08-09T00:08:09.887Z,17.73
2022-08-09T00:10:38.300Z,17.67
2022-08-09T00:13:16.760Z,17.60
2022-08-09T00:15:58.130Z,17.56
2022-08-09T00:18:34.980Z,17.59
2022-08-09T00:21:05.373Z,17.52
2022-08-09T00:23:55.927Z,17.51
2022-08-09T00:26:32.253Z,17.50
2022-08-09T00:29:03.500Z,17.47
2022-08-09T00:31:59.865Z,17.47
2022-08-09T00:34:28.446Z,17.40
2022-08-09T00:37:03.128Z,17.37
2022-08-09T00:40:12.498Z,17.31
2022-08-09T00:44:16.715Z,17.26
2022-08-09T00:45:15.698Z,17.24
2022-08-09T00:47:46.191Z,17.16
2022-08-09T00:50:15.050Z,17.11
2022-08-09T00:52:43.631Z,16.97
2022-08-09T00:55:32.898Z,17.01
2022-08-09T00:58:00.196Z,17.06
2022-08-09T01:00:29.807Z,17.03
2022-08-09T01:03:09.126Z,16.99
2022-08-09T01:05:51.035Z,16.87
2022-08-09T01:08:34.785Z,16.91
2022-08-09T01:11:15.021Z,16.85
2022-08-09T01:13:59.041Z,16.84
2022-08-09T01:16:35.122Z,16.81
2022-08-09T01:19:17.122Z,16.81
2022-08-09T01:22:16.641Z,16.77
2022-08-09T01:24:56.709Z,16.76
2022-08-09T01:27:29.197Z,16.75
2022-08-09T01:30:01.762Z,16.64
2022-08-09T01:32:34.266Z,16.67
2022-08-09T01:35:28.606Z,16.70
2022-08-09T01:38:10.095Z,16.71
2022-08-09T01:40:44.936Z,16.63
2022-08-09T01:43:24.201Z,16.61
2022-08-09T01:45:58.082Z,16.61
2022-08-09T01:48:29.868Z,16.57
2022-08-09T01:51:00.662Z,16.53
2022-08-09T01:53:41.211Z,16.51
2022-08-09T01:56:11.772Z,16.52
2022-08-09T01:58:43.716Z,16.49
2022-08-09T02:01:18.309Z,16.46
2022-08-09T02:03:48.299Z,16.48
2022-08-09T02:06:18.602Z,16.44
2022-08-09T02:08:58.540Z,16.38
2022-08-09T02:11:42.903Z,16.36
2022-08-09T02:14:26.268Z,16.29
2022-08-09T02:17:15.127Z,16.25
2022-08-09T02:19:44.996Z,16.27
2022-08-09T02:22:31.553Z,16.26
2022-08-09T02:25:06.616Z,16.20
2022-08-09T02:27:57.305Z,16.14
2022-08-09T02:30:30.322Z,16.04
2022-08-09T02:33:01.604Z,16.06
2022-08-09T02:36:01.716Z,16.03
2022-08-09T02:38:28.866Z,16.07
2022-08-09T02:41:00.391Z,16.03
2022-08-09T02:43:42.428Z,15.98
2022-08-09T02:46:25.337Z,16.02
2022-08-09T02:48:57.759Z,16.04
2022-08-09T02:51:28.219Z,15.96
2022-08-09T02:54:06.805Z,15.98
2022-08-09T02:56:37.132Z,15.98
2022-08-09T02:59:06.690Z,16.00
2022-08-09T03:02:05.156Z,15.99
2022-08-09T03:04:29.001Z,15.90
2022-08-09T03:06:59.783Z,15.92
2022-08-09T03:09:42.565Z,15.91
2022-08-09T03:12:13.298Z,15.91
2022-08-09T03:14:43.982Z,15.90
2022-08-09T03:17:26.616Z,15.86
2022-08-09T03:20:03.478Z,15.78
2022-08-09T03:22:41.576Z,15.80
2022-08-09T03:25:26.799Z,15.79
2022-08-09T03:28:03.922Z,15.76
2022-08-09T03:30:34.526Z,15.80
2022-08-09T03:33:17.969Z,15.77
2022-08-09T03:36:13.716Z,15.70
2022-08-09T03:38:37.347Z,15.68
2022-08-09T03:41:10.263Z,15.72
2022-08-09T03:44:03.078Z,15.71
2022-08-09T03:46:32.422Z,15.58
2022-08-09T03:49:08.450Z,15.60
2022-08-09T03:51:54.207Z,15.59
2022-08-09T03:54:31.226Z,15.62
2022-08-09T03:57:04.044Z,15.58
2022-08-09T03:59:53.476Z,15.52
2022-08-09T04:02:26.502Z,15.58
2022-08-09T04:05:00.714Z,15.54
2022-08-09T04:07:47.465Z,15.58
2022-08-09T04:10:20.757Z,15.59
2022-08-09T04:12:56.554Z,15.60
2022-08-09T04:15:42.573Z,15.60
2022-08-09T04:18:17.957Z,15.61
2022-08-09T04:20:48.894Z,15.61
2022-08-09T04:23:17.764Z,15.58
2022-08-09T04:25:51.601Z,15.54
2022-08-09T04:28:33.846Z,15.58
2022-08-09T04:31:08.981Z,15.56
2022-08-09T04:33:47.290Z,15.56
2022-08-09T04:36:24.458Z,15.48
2022-08-09T04:38:52.421Z,15.53
2022-08-09T04:41:23.940Z,15.50
2022-08-09T04:44:05.158Z,15.49
2022-08-09T04:46:38.207Z,15.54
2022-08-09T04:49:40.385Z,15.55
2022-08-09T04:52:18.603Z,15.61
2022-08-09T04:54:57.363Z,15.61
2022-08-09T04:57:25.824Z,15.64
2022-08-09T04:59:55.453Z,15.66
2022-08-09T05:02:24.239Z,15.68
2022-08-09T05:04:56.018Z,15.66
2022-08-09T05:07:31.841Z,15.72
2022-08-09T05:10:02.248Z,15.80
2022-08-09T05:12:33.016Z,15.81
2022-08-09T05:15:11.191Z,15.84
2022-08-09T05:18:38.647Z,15.91
2022-08-09T05:20:29.739Z,16.00
2022-08-09T05:23:54.130Z,16.08
2022-08-09T05:25:51.096Z,16.07
2022-08-09T05:28:20.137Z,16.07
2022-08-09T05:30:51.609Z,16.17
2022-08-09T05:33:19.899Z,16.24
2022-08-09T05:35:54.492Z,16.31
2022-08-09T05:38:26.285Z,16.35
2022-08-09T05:40:56.025Z,16.40
2022-08-09T05:43:24.666Z,16.39
2022-08-09T05:45:59.614Z,16.45
2022-08-09T05:48:33.049Z,16.52
2022-08-09T05:51:41.600Z,16.51
2022-08-09T05:53:57.682Z,16.60
2022-08-09T05:56:27.957Z,16.54
2022-08-09T05:58:58.489Z,16.56
2022-08-09T06:01:34.012Z,16.61
2022-08-09T06:04:10.675Z,16.66
2022-08-09T06:06:45.182Z,16.73
2022-08-09T06:09:23.266Z,16.77
2022-08-09T06:12:08.032Z,16.83
2022-08-09T06:14:36.105Z,16.86
2022-08-09T06:17:09.140Z,17.00
2022-08-09T06:19:37.841Z,17.06
2022-08-09T06:22:06.221Z,17.14
2022-08-09T06:24:44.257Z,17.22
2022-08-09T06:27:12.078Z,17.29
2022-08-09T06:29:48.041Z,17.31
2022-08-09T06:32:53.563Z,17.39
2022-08-09T06:35:15.225Z,17.49
2022-08-09T06:37:52.859Z,17.57
2022-08-09T06:40:33.426Z,17.67
2022-08-09T06:43:02.252Z,17.73
2022-08-09T06:46:05.901Z,17.86
2022-08-09T06:48:30.358Z,17.98
2022-08-09T06:50:59.676Z,18.04
2022-08-09T06:53:33.343Z,18.10
2022-08-09T06:56:09.325Z,18.18
2022-08-09T07:00:47.719Z,18.27
2022-08-09T07:01:27.655Z,18.33
2022-08-09T07:04:04.363Z,18.42
2022-08-09T07:06:32.827Z,18.49
2022-08-09T07:09:02.553Z,18.48
2022-08-09T07:11:45.528Z,18.59
2022-08-09T07:14:26.682Z,18.70
2022-08-09T07:16:58.334Z,18.73
2022-08-09T07:19:26.627Z,18.84
2022-08-09T07:21:58.888Z,18.91
2022-08-09T07:24:31.860Z,19.01
2022-08-09T07:27:27.379Z,19.06
2022-08-09T07:30:01.026Z,19.11
2022-08-09T07:32:33.010Z,19.19
2022-08-09T07:35:10.090Z,19.26
2022-08-09T07:37:43.236Z,19.34
2022-08-09T07:40:14.222Z,19.42
2022-08-09T07:42:52.418Z,19.49
2022-08-09T07:45:40.344Z,19.56
2022-08-09T07:48:25.583Z,19.57
2022-08-09T07:51:09.824Z,19.67
2022-08-09T07:54:05.797Z,19.71
2022-08-09T07:56:38.964Z,19.82
2022-08-09T07:59:25.758Z,19.90
2022-08-09T08:02:03.300Z,19.93
2022-08-09T08:04:33.371Z,20.00
2022-08-09T08:07:15.394Z,20.03
2022-08-09T08:09:55.193Z,20.09
2022-08-09T08:12:36.919Z,20.18
2022-08-09T08:15:07.911Z,20.28
2022-08-09T08:17:53.211Z,20.36
2022-08-09T08:20:29.709Z,20.39
2022-08-09T08:23:06.370Z,20.51
2022-08-09T08:25:46.698Z,20.63
2022-08-09T08:28:18.026Z,20.72
2022-08-09T08:30:55.361Z,20.82
2022-08-09T08:33:24.711Z,20.79
2022-08-09T08:36:00.109Z,20.83
2022-08-09T08:38:30.115Z,20.97
2022-08-09T08:40:59.661Z,21.07
2022-08-09T08:43:28.142Z,21.12
2022-08-09T08:46:10.013Z,21.22
2022-08-09T08:48:53.403Z,21.30
2022-08-09T08:51:22.743Z,21.31
2022-08-09T08:54:03.068Z,21.48
2022-08-09T08:56:35.682Z,21.64
2022-08-09T08:59:07.801Z,21.68
2022-08-09T09:01:52.736Z,21.74
2022-08-09T09:04:31.955Z,21.86
2022-08-09T09:07:10.972Z,21.88
2022-08-09T09:10:02.831Z,21.99
2022-08-09T09:12:35.607Z,22.08
2022-08-09T09:15:06.432Z,22.16
2022-08-09T09:17:51.714Z,22.17
2022-08-09T09:20:21.808Z,22.29
2022-08-09T09:22:55.843Z,22.40
2022-08-09T09:26:04.668Z,22.49
2022-08-09T09:29:02.860Z,22.41
2022-08-09T09:31:17.472Z,22.30
2022-08-09T09:34:15.185Z,22.36
2022-08-09T09:36:53.764Z,22.41
2022-08-09T09:39:25.782Z,22.47
2022-08-09T09:42:24.305Z,22.50
2022-08-09T09:44:57.643Z,22.50
2022-08-09T09:47:25.867Z,22.53
2022-08-09T09:50:14.457Z,22.72
2022-08-09T09:52:53.752Z,22.90
2022-08-09T09:55:28.018Z,23.00
2022-08-09T09:58:19.037Z,23.14
2022-08-09T10:00:53.827Z,23.32
2022-08-09T10:03:42.856Z,23.48
2022-08-09T10:06:13.616Z,23.52
2022-08-09T10:08:57.369Z,23.60
2022-08-09T10:12:00.345Z,23.81
2022-08-09T10:14:31.041Z,23.88
2022-08-09T10:17:39.671Z,23.91
2022-08-09T10:19:58.885Z,23.97
2022-08-09T10:22:34.094Z,24.01
2022-08-09T10:25:10.977Z,24.11
2022-08-09T10:27:45.344Z,23.89
2022-08-09T10:33:29.569Z,24.22
2022-08-09T10:36:03.378Z,24.44
2022-08-09T10:38:55.851Z,24.41
2022-08-09T10:41:22.379Z,24.25
2022-08-09T10:43:59.487Z,24.14
2022-08-09T10:46:55.644Z,24.18
2022-08-09T10:49:50.804Z,24.44
2022-08-09T10:52:42.640Z,24.58
2022-08-09T10:55:25.289Z,24.87
2022-08-09T10:57:55.937Z,25.09
2022-08-09T11:03:06.571Z,25.21
2022-08-09T11:03:49.946Z,25.16
2022-08-09T11:06:22.932Z,25.12
2022-08-09T11:08:53.488Z,25.12
2022-08-09T11:11:24.212Z,25.20
2022-08-09T11:14:38.063Z,25.16
2022-08-09T11:18:02.674Z,25.29
2022-08-09T11:20:47.563Z,25.80
2022-08-09T11:23:29.815Z,25.86
2022-08-09T11:26:00.336Z,25.92
2022-08-09T11:28:34.328Z,25.64
2022-08-09T11:31:06.872Z,25.36
2022-08-09T11:33:46.678Z,25.65
2022-08-09T11:36:30.372Z,25.79
2022-08-09T11:39:05.299Z,25.93
2022-08-09T11:41:38.566Z,26.10
2022-08-09T11:44:08.895Z,26.07
2022-08-09T11:46:53.188Z,26.11
2022-08-09T11:50:52.472Z,26.04
2022-08-09T11:54:01.305Z,25.51
2022-08-09T11:56:41.962Z,25.32
2022-08-09T11:59:30.490Z,25.10
2022-08-09T12:02:17.680Z,24.80
2022-08-09T12:04:54.652Z,24.86
2022-08-09T12:07:41.217Z,24.90
2022-08-09T12:10:14.459Z,24.97
2022-08-09T12:13:03.709Z,25.07
2022-08-09T12:15:52.076Z,25.20
2022-08-09T12:18:26.219Z,25.40
2022-08-09T12:21:00.331Z,25.64
2022-08-09T12:23:56.473Z,25.73
2022-08-09T12:26:25.997Z,25.92
2022-08-09T12:29:15.412Z,25.70
2022-08-09T12:32:02.036Z,25.78
2022-08-09T12:34:35.038Z,25.77
2022-08-09T12:37:21.346Z,25.92
2022-08-09T12:40:01.747Z,26.23
2022-08-09T12:42:32.351Z,26.30
2022-08-09T12:45:00.549Z,26.39
2022-08-09T12:47:37.111Z,26.36
2022-08-09T12:50:23.443Z,26.25
2022-08-09T12:53:17.684Z,26.23
2022-08-09T12:56:15.479Z,25.88
2022-08-09T12:58:31.422Z,25.68
2022-08-09T13:01:04.422Z,25.30
2022-08-09T13:03:53.030Z,25.12
2022-08-09T13:06:34.755Z,24.89
2022-08-09T13:09:14.743Z,25.02
2022-08-09T13:11:45.288Z,25.15
2022-08-09T13:14:41.987Z,25.34
2022-08-09T13:17:08.578Z,25.51
2022-08-09T13:20:09.492Z,25.72
2022-08-09T13:22:35.956Z,25.78
2022-08-09T13:25:14.390Z,25.82
2022-08-09T13:27:48.780Z,25.90
2022-08-09T13:30:50.669Z,25.84
2022-08-09T13:33:52.282Z,25.84
2022-08-09T13:36:24.338Z,25.83
2022-08-09T13:39:34.131Z,25.93
2022-08-09T13:41:57.940Z,25.83
2022-08-09T13:44:28.555Z,25.97
2022-08-09T13:47:30.806Z,26.01
2022-08-09T13:49:57.138Z,26.01
2022-08-09T13:52:26.650Z,25.98
2022-08-09T13:55:00.013Z,26.06
2022-08-09T13:57:39.727Z,26.23
2022-08-09T14:00:12.933Z,26.03
2022-08-09T14:03:04.411Z,25.91
2022-08-09T14:05:59.041Z,25.76
2022-08-09T14:08:23.781Z,25.81
2022-08-09T14:10:55.015Z,26.05
2022-08-09T14:14:15.566Z,26.08
2022-08-09T14:16:15.149Z,26.16
2022-08-09T14:18:49.589Z,26.35
2022-08-09T14:21:20.073Z,26.35
2022-08-09T14:23:54.049Z,26.36
2022-08-09T14:26:31.826Z,26.37
2022-08-09T14:29:03.123Z,26.47
2022-08-09T14:31:49.904Z,26.47
2022-08-09T14:34:32.261Z,26.49
2022-08-09T14:37:07.458Z,26.39
2022-08-09T14:39:40.239Z,26.38
2022-08-09T14:42:28.937Z,26.45
2022-08-09T14:46:46.400Z,26.60
2022-08-09T14:47:58.438Z,26.76
2022-08-09T14:50:31.053Z,26.94
2022-08-09T14:53:00.456Z,27.10
2022-08-09T14:55:29.142Z,27.16
2022-08-09T14:58:02.917Z,27.25
2022-08-09T15:00:32.334Z,27.18
2022-08-09T15:03:01.987Z,27.24
2022-08-09T15:05:36.491Z,27.27
2022-08-09T15:08:05.432Z,27.40
2022-08-09T15:10:35.186Z,27.52
2022-08-09T15:13:04.848Z,27.55
2022-08-09T15:15:39.365Z,27.63
2022-08-09T15:18:14.132Z,27.71
2022-08-09T15:21:58.158Z,27.75
2022-08-09T15:24:02.028Z,27.75
2022-08-09T15:26:30.955Z,28.12
2022-08-09T15:29:04.881Z,28.68
2022-08-09T15:31:41.315Z,29.36
2022-08-09T15:34:33.151Z,29.51
2022-08-09T15:37:01.192Z,29.96
2022-08-09T15:39:43.992Z,30.06
2022-08-09T15:42:20.000Z,30.40
2022-08-09T15:44:49.952Z,30.91
2022-08-09T15:47:22.550Z,30.79
2022-08-09T15:50:04.983Z,31.04
2022-08-09T15:52:36.023Z,31.04
2022-08-09T15:55:05.830Z,31.14
2022-08-09T15:57:44.569Z,30.99
2022-08-09T16:00:25.777Z,31.52
2022-08-09T16:02:56.108Z,31.90
2022-08-09T16:05:47.328Z,31.85
2022-08-09T16:08:29.738Z,31.92
2022-08-09T16:11:01.589Z,32.09
2022-08-09T16:14:02.681Z,31.95
2022-08-09T16:16:19.054Z,32.17
2022-08-09T16:18:47.345Z,32.31
2022-08-09T16:21:16.867Z,32.66
2022-08-09T16:23:50.891Z,33.39
2022-08-09T16:26:34.939Z,33.57
2022-08-09T16:29:10.401Z,33.60
2022-08-09T16:32:20.546Z,33.91
2022-08-09T16:34:29.898Z,33.73
2022-08-09T16:37:53.351Z,33.96
2022-08-09T16:40:12.395Z,33.60
2022-08-09T16:42:44.913Z,33.02
2022-08-09T16:45:14.805Z,33.67
2022-08-09T16:48:39.467Z,33.67
2022-08-09T16:50:34.484Z,33.65
2022-08-09T16:53:02.800Z,34.13
2022-08-09T16:56:00.171Z,34.51
2022-08-09T16:58:20.993Z,35.07
2022-08-09T17:00:51.282Z,35.15
2022-08-09T17:03:21.787Z,34.56
2022-08-09T17:06:07.769Z,34.52
2022-08-09T17:08:44.380Z,34.86
2022-08-09T17:11:32.917Z,34.49
2022-08-09T17:14:25.730Z,34.29
2022-08-09T17:16:59.645Z,34.44
2022-08-09T17:19:47.628Z,34.14
2022-08-09T17:22:16.396Z,34.35
2022-08-09T17:24:54.804Z,34.65
2022-08-09T17:27:24.894Z,34.86
2022-08-09T17:29:53.303Z,34.96
2022-08-09T17:32:26.646Z,34.85
2022-08-09T17:35:11.933Z,34.79
2022-08-09T17:38:07.646Z,34.60
2022-08-09T17:40:32.740Z,34.47
2022-08-09T17:43:32.991Z,33.05
2022-08-09T17:46:04.184Z,31.83
2022-08-09T17:48:35.186Z,31.12
2022-08-09T17:51:09.660Z,30.58
2022-08-09T17:53:51.378Z,29.99
2022-08-09T17:56:21.491Z,29.40
2022-08-09T17:58:50.689Z,29.06
2022-08-09T18:01:22.366Z,28.94
2022-08-09T18:03:51.953Z,28.71
2022-08-09T18:06:31.116Z,28.42
2022-08-09T18:09:03.172Z,28.18
2022-08-09T18:11:46.830Z,28.12
2022-08-09T18:14:23.878Z,27.92
2022-08-09T18:16:53.521Z,27.65
2022-08-09T18:20:57.360Z,27.54
2022-08-09T18:22:16.720Z,27.43
2022-08-09T18:24:46.345Z,27.31
2022-08-09T18:27:49.217Z,27.13
2022-08-09T18:30:40.546Z,26.74
2022-08-09T18:32:54.981Z,26.56
2022-08-09T18:35:58.578Z,26.58
2022-08-09T18:38:12.519Z,26.50
2022-08-09T18:40:40.852Z,26.37
2022-08-09T18:43:08.886Z,26.18
2022-08-09T18:46:46.761Z,26.08
2022-08-09T18:48:30.391Z,26.04
2022-08-09T18:51:01.341Z,25.91
2022-08-09T18:53:55.938Z,25.83
2022-08-09T18:56:17.826Z,25.70
2022-08-09T18:58:51.386Z,25.55
2022-08-09T19:01:25.822Z,25.42
2022-08-09T19:04:01.380Z,25.37
2022-08-09T19:06:35.003Z,25.24
2022-08-09T19:09:06.981Z,25.13
2022-08-09T19:11:38.407Z,25.07
2022-08-09T19:14:07.181Z,24.93
2022-08-09T19:16:38.081Z,24.80
2022-08-09T19:19:25.180Z,24.78
2022-08-09T19:22:05.096Z,24.64
2022-08-09T19:24:39.347Z,24.58
2022-08-09T19:27:23.121Z,24.47
2022-08-09T19:30:23.075Z,24.40
2022-08-09T19:32:40.466Z,24.34
2022-08-09T19:35:09.430Z,24.21
2022-08-09T19:37:54.231Z,24.19
2022-08-09T19:40:23.005Z,24.07
2022-08-09T19:42:52.213Z,23.96
2022-08-09T19:45:20.547Z,23.91
2022-08-09T19:47:49.821Z,23.81
2022-08-09T19:50:50.477Z,23.76
2022-08-09T19:53:06.475Z,23.68
2022-08-09T19:56:03.457Z,23.62
2022-08-09T19:58:29.546Z,23.54
2022-08-09T20:00:58.532Z,23.46
2022-08-09T20:04:18.308Z,23.39
2022-08-09T20:06:23.467Z,23.30
2022-08-09T20:08:56.632Z,23.24
2022-08-09T20:11:25.828Z,23.22
2022-08-09T20:13:54.805Z,23.16
2022-08-09T20:19:47.880Z,23.00
2022-08-09T20:22:00.204Z,22.92
2022-08-09T20:24:29.878Z,22.86
2022-08-09T20:27:05.606Z,22.79
2022-08-09T20:29:38.672Z,22.73
2022-08-09T20:32:30.750Z,22.65
2022-08-09T20:34:57.695Z,22.56
2022-08-09T20:37:25.807Z,22.50
2022-08-09T20:40:18.860Z,22.42
2022-08-09T20:42:59.334Z,22.35
2022-08-09T20:45:59.267Z,22.27
2022-08-09T20:48:21.145Z,22.20
2022-08-09T20:50:55.640Z,22.13
2022-08-09T20:53:37.652Z,22.08
2022-08-09T20:56:09.407Z,22.02
2022-08-09T20:58:50.059Z,21.96
2022-08-09T21:01:34.539Z,21.89
2022-08-09T21:05:51.828Z,21.85
2022-08-09T21:06:57.688Z,21.80
2022-08-09T21:09:41.843Z,21.75
2022-08-09T21:14:48.351Z,21.66
2022-08-09T21:18:22.064Z,21.66
2022-08-09T21:20:22.595Z,21.60
2022-08-09T21:22:55.007Z,21.55
2022-08-09T21:25:44.381Z,21.50
2022-08-09T21:28:33.376Z,21.43
2022-08-09T21:31:17.204Z,21.44
2022-08-09T21:33:51.374Z,21.40
2022-08-09T21:36:23.181Z,21.35
2022-08-09T21:38:58.050Z,21.31
2022-08-09T21:41:59.910Z,21.32
2022-08-09T21:44:32.725Z,21.26
2022-08-09T21:47:05.144Z,21.21
2022-08-09T21:49:40.054Z,21.15
2022-08-09T21:52:16.499Z,21.09
2022-08-09T21:54:50.564Z,21.06
2022-08-09T21:57:36.919Z,20.96
2022-08-09T22:00:10.563Z,20.90
2022-08-09T22:02:42.888Z,20.90
2022-08-09T22:05:22.409Z,20.89
2022-08-09T22:07:53.379Z,20.89
2022-08-09T22:10:24.154Z,20.83
2022-08-09T22:12:52.941Z,20.79
2022-08-09T22:15:23.393Z,20.71
2022-08-09T22:18:02.984Z,20.69
2022-08-09T22:20:31.099Z,20.65
2022-08-09T22:22:59.928Z,20.57
2022-08-09T22:26:05.335Z,20.56
2022-08-09T22:28:21.022Z,20.53
2022-08-09T22:30:57.846Z,20.46
2022-08-09T22:33:26.010Z,20.42
2022-08-09T22:36:13.986Z,20.33
2022-08-09T22:38:47.551Z,20.34
2022-08-09T22:41:17.325Z,20.26
2022-08-09T22:44:02.575Z,20.27
2022-08-09T22:48:15.885Z,20.19
2022-08-09T22:49:20.231Z,20.16
2022-08-09T22:51:56.974Z,20.14
2022-08-09T22:54:27.316Z,20.10
2022-08-09T22:56:58.778Z,20.08
2022-08-09T22:59:55.237Z,20.03
2022-08-09T23:02:20.102Z,19.98
2022-08-09T23:04:53.981Z,19.91
2022-08-09T23:08:27.270Z,19.88
2022-08-09T23:10:32.042Z,19.83
2022-08-09T23:13:01.229Z,19.82
2022-08-09T23:15:30.295Z,19.77
2022-08-09T23:17:58.240Z,19.77
2022-08-09T23:20:28.784Z,19.74
2022-08-09T23:22:56.751Z,19.71
2022-08-09T23:25:24.717Z,19.62
2022-08-09T23:28:15.808Z,19.61
2022-08-09T23:30:50.888Z,19.54
2022-08-09T23:33:20.501Z,19.52
2022-08-09T23:36:04.956Z,19.46
2022-08-09T23:38:35.189Z,19.45
2022-08-09T23:41:04.071Z,19.40
2022-08-09T23:43:32.021Z,19.39
2022-08-09T23:46:01.540Z,19.33
2022-08-09T23:48:29.462Z,19.26
2022-08-09T23:50:57.336Z,19.21
2022-08-09T23:53:25.612Z,19.16
2022-08-09T23:55:59.062Z,19.14
2022-08-09T23:58:29.954Z,19.09
